createdAt,value
2023-04-16T00:00:48.408Z,4.32
2023-04-16T00:03:16.365Z,3.60
2023-04-16T00:05:44.238Z,5.18
2023-04-16T00:08:11.931Z,5.13
2023-04-16T00:10:39.826Z,4.43
2023-04-16T00:13:07.477Z,5.72
2023-04-16T00:15:36.614Z,6.80
2023-04-16T00:18:04.349Z,5.07
2023-04-16T00:20:32.916Z,3.80
2023-04-16T00:23:00.816Z,4.43
2023-04-16T00:25:28.509Z,3.97
2023-04-16T00:27:56.132Z,4.57
2023-04-16T00:30:23.779Z,3.97
2023-04-16T00:32:52.789Z,5.13
2023-04-16T00:35:20.747Z,3.78
2023-04-16T00:37:48.372Z,3.97
2023-04-16T00:40:16.251Z,4.60
2023-04-16T00:42:43.933Z,4.35
2023-04-16T00:45:12.349Z,3.85
2023-04-16T00:47:40.381Z,3.50
2023-04-16T00:50:12.007Z,4.18
2023-04-16T00:52:39.767Z,3.30
2023-04-16T00:55:13.412Z,4.55
2023-04-16T00:57:41.099Z,4.57
2023-04-16T01:00:09.943Z,3.92
2023-04-16T01:02:37.944Z,7.28
2023-04-16T01:05:06.595Z,3.83
2023-04-16T01:07:35.822Z,3.25
2023-04-16T01:10:03.732Z,4.05
2023-04-16T01:12:34.084Z,3.35
2023-04-16T01:15:01.775Z,5.40
2023-04-16T01:17:32.078Z,2.67
2023-04-16T01:20:00.330Z,3.17
2023-04-16T01:22:29.555Z,3.78
2023-04-16T01:24:57.182Z,3.58
2023-04-16T01:27:24.824Z,3.40
2023-04-16T01:29:52.587Z,2.75
2023-04-16T01:32:20.739Z,2.50
2023-04-16T01:34:49.124Z,3.40
2023-04-16T01:37:16.808Z,2.72
2023-04-16T01:39:45.891Z,2.88
2023-04-16T01:42:13.504Z,2.88
2023-04-16T01:44:41.108Z,2.10
2023-04-16T01:47:09.566Z,2.67
2023-04-16T01:49:37.524Z,2.30
2023-04-16T01:52:05.671Z,2.60
2023-04-16T01:54:33.288Z,2.83
2023-04-16T01:57:03.210Z,2.38
2023-04-16T01:59:30.868Z,2.60
2023-04-16T02:01:59.434Z,2.10
2023-04-16T02:04:27.201Z,2.72
2023-04-16T02:06:54.902Z,2.17
2023-04-16T02:09:22.601Z,3.50
2023-04-16T02:11:50.335Z,2.03
2023-04-16T02:14:19.871Z,1.90
2023-04-16T02:16:47.551Z,2.00
2023-04-16T02:19:15.198Z,3.05
2023-04-16T02:21:42.908Z,2.17
2023-04-16T02:24:11.255Z,2.58
2023-04-16T02:26:38.859Z,2.17
2023-04-16T02:29:06.725Z,1.75
2023-04-16T02:31:35.931Z,2.17
2023-04-16T02:34:03.865Z,2.10
2023-04-16T02:36:31.849Z,2.15
2023-04-16T02:38:59.929Z,1.75
2023-04-16T02:41:27.712Z,2.28
2023-04-16T02:43:55.411Z,2.03
2023-04-16T02:46:23.281Z,1.98
2023-04-16T02:48:54.109Z,2.03
2023-04-16T02:51:21.716Z,1.95
2023-04-16T02:53:49.464Z,2.00
2023-04-16T02:56:17.109Z,1.77
2023-04-16T02:58:44.727Z,1.58
2023-04-16T03:01:12.610Z,2.60
2023-04-16T03:03:40.384Z,1.90
2023-04-16T03:06:09.388Z,1.90
2023-04-16T03:08:37.017Z,1.42
2023-04-16T03:11:04.692Z,1.80
2023-04-16T03:13:32.399Z,1.77
2023-04-16T03:16:00.141Z,1.52
2023-04-16T03:18:27.833Z,2.70
2023-04-16T03:20:55.520Z,1.52
2023-04-16T03:23:24.524Z,2.35
2023-04-16T03:25:52.122Z,2.03
2023-04-16T03:28:19.774Z,1.70
2023-04-16T03:30:51.278Z,2.22
2023-04-16T03:33:18.945Z,2.05
2023-04-16T03:35:46.692Z,2.47
2023-04-16T03:38:14.324Z,2.67
2023-04-16T03:40:43.294Z,2.40
2023-04-16T03:43:11.017Z,2.30
2023-04-16T03:45:38.763Z,2.38
2023-04-16T03:48:06.562Z,2.30
2023-04-16T03:50:34.187Z,1.88
2023-04-16T03:53:02.309Z,1.83
2023-04-16T03:55:30.370Z,1.73
2023-04-16T03:58:03.047Z,2.45
2023-04-16T04:00:30.965Z,2.08
2023-04-16T04:02:59.083Z,2.17
2023-04-16T04:05:32.186Z,1.80
2023-04-16T04:07:59.827Z,1.63
2023-04-16T04:10:27.470Z,1.60
2023-04-16T04:12:55.398Z,1.80
2023-04-16T04:15:24.529Z,1.75
2023-04-16T04:17:52.248Z,2.80
2023-04-16T04:20:20.109Z,2.22
2023-04-16T04:22:47.847Z,1.77
2023-04-16T04:25:15.677Z,2.40
2023-04-16T04:27:46.908Z,1.98
2023-04-16T04:30:14.533Z,2.00
2023-04-16T04:32:43.997Z,2.22
2023-04-16T04:35:13.290Z,1.75
2023-04-16T04:37:41.126Z,1.92
2023-04-16T04:40:09.472Z,1.60
2023-04-16T04:42:37.822Z,2.08
2023-04-16T04:45:05.880Z,1.75
2023-04-16T04:47:39.090Z,1.98
2023-04-16T04:50:08.897Z,2.80
2023-04-16T04:52:36.770Z,1.80
2023-04-16T04:55:04.641Z,2.17
2023-04-16T04:57:37.768Z,1.90
2023-04-16T05:00:05.931Z,1.88
2023-04-16T05:02:33.828Z,2.30
2023-04-16T05:05:01.593Z,2.00
2023-04-16T05:07:31.804Z,1.98
2023-04-16T05:09:59.582Z,2.45
2023-04-16T05:12:27.186Z,1.95
2023-04-16T05:14:54.924Z,2.08
2023-04-16T05:17:22.553Z,1.63
2023-04-16T05:19:50.246Z,1.58
2023-04-16T05:22:18.979Z,2.22
2023-04-16T05:24:48.003Z,1.80
2023-04-16T05:27:15.714Z,2.15
2023-04-16T05:29:43.377Z,1.52
2023-04-16T05:32:18.063Z,1.90
2023-04-16T05:34:45.904Z,1.40
2023-04-16T05:37:13.531Z,2.60
2023-04-16T05:39:41.340Z,1.60
2023-04-16T05:42:10.401Z,1.85
2023-04-16T05:44:37.992Z,2.33
2023-04-16T05:47:07.577Z,1.60
2023-04-16T05:49:35.518Z,2.10
2023-04-16T05:52:03.381Z,2.85
2023-04-16T05:54:31.097Z,1.92
2023-04-16T05:56:58.774Z,2.33
2023-04-16T05:59:27.760Z,2.08
2023-04-16T06:01:55.438Z,1.80
2023-04-16T06:04:23.335Z,2.75
2023-04-16T06:06:51.274Z,2.65
2023-04-16T06:09:19.597Z,2.20
2023-04-16T06:11:47.706Z,2.72
2023-04-16T06:14:15.740Z,2.92
2023-04-16T06:16:45.550Z,3.15
2023-04-16T06:19:13.198Z,2.80
2023-04-16T06:21:41.224Z,1.95
2023-04-16T06:24:08.876Z,2.40
2023-04-16T06:26:36.516Z,2.65
2023-04-16T06:29:04.246Z,2.20
2023-04-16T06:31:32.003Z,2.88
2023-04-16T06:34:01.402Z,3.03
2023-04-16T06:36:29.171Z,2.28
2023-04-16T06:38:56.820Z,2.70
2023-04-16T06:41:26.691Z,2.78
2023-04-16T06:43:54.318Z,3.72
2023-04-16T06:46:22.168Z,2.83
2023-04-16T06:48:50.523Z,2.65
2023-04-16T06:51:19.618Z,2.67
2023-04-16T06:53:47.321Z,2.50
2023-04-16T06:56:15.699Z,2.58
2023-04-16T06:58:43.410Z,2.85
2023-04-16T07:01:11.242Z,3.20
2023-04-16T07:03:39.035Z,4.22
2023-04-16T07:06:06.971Z,3.20
2023-04-16T07:08:36.058Z,3.90
2023-04-16T07:11:03.730Z,3.58
2023-04-16T07:13:31.366Z,2.85
2023-04-16T07:16:02.015Z,3.15
2023-04-16T07:18:33.514Z,2.80
2023-04-16T07:21:01.238Z,3.53
2023-04-16T07:23:29.034Z,2.95
2023-04-16T07:25:58.148Z,2.42
2023-04-16T07:28:26.313Z,2.97
2023-04-16T07:30:54.022Z,3.50
2023-04-16T07:33:21.635Z,4.15
2023-04-16T07:35:49.392Z,3.15
2023-04-16T07:38:17.141Z,2.90
2023-04-16T07:40:44.768Z,3.03
2023-04-16T07:43:15.511Z,3.30
2023-04-16T07:45:43.272Z,3.13
2023-04-16T07:48:11.352Z,2.92
2023-04-16T07:50:46.010Z,2.30
2023-04-16T07:53:13.672Z,3.30
2023-04-16T07:55:41.372Z,3.33
2023-04-16T07:58:11.409Z,2.47
2023-04-16T08:00:40.414Z,3.20
2023-04-16T08:03:08.282Z,2.17
2023-04-16T08:05:36.555Z,2.72
2023-04-16T08:08:04.242Z,2.30
2023-04-16T08:10:31.879Z,1.85
2023-04-16T08:13:01.261Z,1.92
2023-04-16T08:15:29.544Z,2.70
2023-04-16T08:17:59.615Z,2.30
2023-04-16T08:20:27.322Z,2.10
2023-04-16T08:22:55.389Z,2.55
2023-04-16T08:25:24.742Z,2.15
2023-04-16T08:27:52.391Z,3.33
2023-04-16T08:30:21.958Z,3.05
2023-04-16T08:32:50.238Z,2.60
2023-04-16T08:35:19.560Z,2.80
2023-04-16T08:37:47.140Z,2.25
2023-04-16T08:40:16.858Z,2.85
2023-04-16T08:42:46.825Z,3.40
2023-04-16T08:45:15.568Z,3.25
2023-04-16T08:47:46.563Z,3.30
2023-04-16T08:50:15.689Z,3.35
2023-04-16T08:52:47.227Z,3.88
2023-04-16T08:55:15.476Z,3.33
2023-04-16T08:57:47.495Z,3.72
2023-04-16T09:00:15.552Z,2.88
2023-04-16T09:02:43.918Z,2.92
2023-04-16T09:05:11.900Z,3.10
2023-04-16T09:07:39.798Z,2.97
2023-04-16T09:10:11.036Z,2.47
2023-04-16T09:12:38.884Z,2.08
2023-04-16T09:15:07.107Z,2.50
2023-04-16T09:17:35.579Z,2.90
2023-04-16T09:20:04.767Z,3.28
2023-04-16T09:22:32.444Z,2.95
2023-04-16T09:25:00.043Z,3.72
2023-04-16T09:27:29.376Z,3.67
2023-04-16T09:29:57.048Z,3.13
2023-04-16T09:32:26.316Z,3.45
2023-04-16T09:34:58.430Z,3.78
2023-04-16T09:37:27.077Z,3.85
2023-04-16T09:39:55.199Z,3.58
2023-04-16T09:42:23.526Z,4.22
2023-04-16T09:44:52.659Z,3.10
2023-04-16T09:47:20.630Z,3.33
2023-04-16T09:49:51.630Z,3.58
2023-04-16T09:52:20.106Z,3.33
2023-04-16T09:54:48.594Z,3.65
2023-04-16T09:57:17.088Z,3.67
2023-04-16T09:59:44.745Z,3.45
2023-04-16T10:02:14.971Z,3.28
2023-04-16T10:04:47.956Z,3.88
2023-04-16T10:07:15.695Z,3.38
2023-04-16T10:09:43.470Z,3.20
2023-04-16T10:12:12.752Z,3.45
2023-04-16T10:14:40.957Z,2.72
2023-04-16T10:17:09.783Z,3.50
2023-04-16T10:19:39.142Z,2.70
2023-04-16T10:22:06.923Z,3.40
2023-04-16T10:24:35.636Z,2.90
2023-04-16T10:27:03.733Z,2.38
2023-04-16T10:29:33.469Z,2.88
2023-04-16T10:32:01.697Z,2.70
2023-04-16T10:34:31.284Z,3.13
2023-04-16T10:37:00.350Z,2.58
2023-04-16T10:39:29.324Z,2.67
2023-04-16T10:42:08.652Z,2.65
2023-04-16T10:44:36.580Z,2.47
2023-04-16T10:47:14.085Z,2.50
2023-04-16T10:49:43.946Z,2.60
2023-04-16T10:52:13.952Z,3.10
2023-04-16T10:54:41.908Z,2.58
2023-04-16T10:57:10.749Z,2.90
2023-04-16T10:59:39.891Z,2.67
2023-04-16T11:02:08.949Z,2.58
2023-04-16T11:04:37.935Z,2.83
2023-04-16T11:07:08.195Z,2.38
2023-04-16T11:09:52.203Z,2.03
2023-04-16T11:12:20.895Z,2.88
2023-04-16T11:14:49.417Z,3.10
2023-04-16T11:17:17.245Z,2.30
2023-04-16T11:19:54.596Z,2.40
2023-04-16T11:22:22.509Z,2.60
2023-04-16T11:24:55.109Z,2.92
2023-04-16T11:27:23.434Z,2.75
2023-04-16T11:29:57.949Z,3.53
2023-04-16T11:32:25.656Z,2.80
2023-04-16T11:34:53.510Z,3.05
2023-04-16T11:37:21.900Z,3.42
2023-04-16T11:39:54.330Z,2.92
2023-04-16T11:42:23.830Z,3.85
2023-04-16T11:44:55.371Z,3.58
2023-04-16T11:47:23.922Z,3.13
2023-04-16T11:49:52.294Z,3.00
2023-04-16T11:52:27.382Z,3.67
2023-04-16T11:54:56.558Z,3.47
2023-04-16T11:57:28.176Z,3.67
2023-04-16T12:00:02.315Z,3.80
2023-04-16T12:05:00.706Z,4.20
2023-04-16T12:07:28.468Z,4.60
2023-04-16T12:10:07.748Z,3.38
2023-04-16T12:12:35.816Z,4.63
2023-04-16T12:15:04.452Z,3.53
2023-04-16T12:17:33.126Z,3.20
2023-04-16T12:20:01.832Z,3.90
2023-04-16T12:22:30.189Z,4.15
2023-04-16T12:24:59.563Z,3.60
2023-04-16T12:30:22.530Z,3.72
2023-04-16T12:32:51.866Z,4.30
2023-04-16T12:35:31.321Z,3.45
2023-04-16T12:37:58.987Z,3.90
2023-04-16T12:40:26.851Z,3.55
2023-04-16T12:42:54.923Z,3.03
2023-04-16T12:45:23.977Z,3.25
2023-04-16T12:47:51.692Z,3.67
2023-04-16T12:50:19.337Z,4.68
2023-04-16T12:52:47.232Z,3.45
2023-04-16T12:55:16.673Z,3.70
2023-04-16T12:57:44.363Z,3.83
2023-04-16T13:00:12.689Z,3.40
2023-04-16T13:02:42.262Z,3.45
2023-04-16T13:05:10.201Z,3.35
2023-04-16T13:07:37.889Z,3.88
2023-04-16T13:10:06.384Z,4.20
2023-04-16T13:12:34.208Z,3.67
2023-04-16T13:15:02.024Z,3.75
2023-04-16T13:17:32.484Z,3.97
2023-04-16T13:20:01.890Z,3.80
2023-04-16T13:22:29.579Z,3.15
2023-04-16T13:24:58.682Z,4.07
2023-04-16T13:27:26.715Z,3.67
2023-04-16T13:29:54.936Z,3.40
2023-04-16T13:32:22.643Z,3.80
2023-04-16T13:34:50.870Z,4.07
2023-04-16T13:37:25.443Z,3.13
2023-04-16T13:39:53.079Z,3.57
2023-04-16T13:42:22.252Z,3.90
2023-04-16T13:44:53.127Z,3.33
2023-04-16T13:47:21.022Z,3.75
2023-04-16T13:49:58.703Z,3.78
2023-04-16T13:52:27.783Z,3.42
2023-04-16T13:54:55.458Z,4.10
2023-04-16T13:57:23.169Z,4.05
2023-04-16T13:59:50.993Z,3.55
2023-04-16T14:02:18.793Z,3.45
2023-04-16T14:04:46.464Z,2.90
2023-04-16T14:07:14.297Z,3.45
2023-04-16T14:09:57.569Z,4.55
2023-04-16T14:12:28.156Z,4.25
2023-04-16T14:14:55.934Z,4.28
2023-04-16T14:17:23.716Z,4.53
2023-04-16T14:19:51.818Z,3.38
2023-04-16T14:22:19.451Z,3.53
2023-04-16T14:24:47.087Z,3.80
2023-04-16T14:27:14.731Z,2.88
2023-04-16T14:29:46.644Z,3.13
2023-04-16T14:32:14.568Z,3.10
2023-04-16T14:34:42.359Z,3.10
2023-04-16T14:37:10.495Z,3.03
2023-04-16T14:39:39.287Z,3.03
2023-04-16T14:42:07.423Z,3.80
2023-04-16T14:44:35.360Z,5.50
2023-04-16T14:47:04.345Z,4.03
2023-04-16T14:49:32.011Z,4.05
2023-04-16T14:51:59.698Z,4.35
2023-04-16T14:54:28.116Z,3.75
2023-04-16T14:56:56.757Z,4.82
2023-04-16T14:59:24.384Z,5.32
2023-04-16T15:01:52.371Z,4.30
2023-04-16T15:04:21.614Z,4.78
2023-04-16T15:06:50.181Z,3.97
2023-04-16T15:09:17.806Z,3.65
2023-04-16T15:11:45.864Z,3.75
2023-04-16T15:14:13.523Z,4.68
2023-04-16T15:16:41.311Z,3.60
2023-04-16T15:19:09.616Z,3.83
2023-04-16T15:21:38.810Z,3.92
2023-04-16T15:24:06.722Z,4.30
2023-04-16T15:26:34.435Z,3.92
2023-04-16T15:29:02.088Z,3.30
2023-04-16T15:31:29.973Z,4.15
2023-04-16T15:33:57.667Z,4.68
2023-04-16T15:36:26.659Z,3.78
2023-04-16T15:38:55.695Z,4.68
2023-04-16T15:41:23.438Z,3.85
2023-04-16T15:43:51.941Z,3.45
2023-04-16T15:46:20.398Z,3.95
2023-04-16T15:48:48.227Z,4.05
2023-04-16T15:51:16.369Z,4.32
2023-04-16T15:53:45.265Z,4.68
2023-04-16T15:56:14.303Z,4.25
2023-04-16T15:58:41.972Z,4.07
2023-04-16T16:01:09.858Z,4.05
2023-04-16T16:03:37.804Z,3.85
2023-04-16T16:06:07.665Z,3.85
2023-04-16T16:08:37.806Z,4.07
2023-04-16T16:11:05.663Z,4.32
2023-04-16T16:13:35.952Z,4.45
2023-04-16T16:16:03.701Z,4.07
2023-04-16T16:18:33.332Z,4.03
2023-04-16T16:21:01.566Z,5.15
2023-04-16T16:23:29.326Z,5.20
2023-04-16T16:25:56.953Z,7.95
2023-04-16T16:28:25.162Z,10.88
2023-04-16T16:30:55.746Z,10.65
2023-04-16T16:33:23.600Z,10.07
2023-04-16T16:35:51.361Z,11.15
2023-04-16T16:38:18.980Z,10.68
2023-04-16T16:40:48.277Z,11.70
2023-04-16T16:43:16.393Z,12.20
2023-04-16T16:45:44.159Z,11.85
2023-04-16T16:48:13.486Z,10.02
2023-04-16T16:50:41.282Z,11.55
2023-04-16T16:53:09.693Z,10.68
2023-04-16T16:55:37.357Z,13.07
2023-04-16T16:58:05.088Z,13.45
2023-04-16T17:00:33.043Z,13.32
2023-04-16T17:03:01.140Z,13.38
2023-04-16T17:05:30.419Z,13.20
2023-04-16T17:07:58.304Z,12.65
2023-04-16T17:10:26.589Z,12.60
2023-04-16T17:12:54.508Z,11.38
2023-04-16T17:15:22.378Z,11.05
2023-04-16T17:17:50.196Z,10.32
2023-04-16T17:20:18.083Z,10.52
2023-04-16T17:22:47.238Z,12.60
2023-04-16T17:25:14.892Z,10.77
2023-04-16T17:27:43.019Z,11.70
2023-04-16T17:30:11.042Z,14.57
2023-04-16T17:32:38.686Z,14.55
2023-04-16T17:35:07.041Z,13.00
2023-04-16T17:37:35.407Z,11.98
2023-04-16T17:40:22.626Z,10.93
2023-04-16T17:42:51.769Z,12.65
2023-04-16T17:45:19.641Z,11.00
2023-04-16T17:47:47.837Z,12.48
2023-04-16T17:50:15.465Z,12.13
2023-04-16T17:52:43.471Z,10.02
2023-04-16T17:55:11.861Z,11.85
2023-04-16T17:57:39.522Z,9.77
2023-04-16T18:00:11.253Z,9.93
2023-04-16T18:02:41.041Z,11.35
2023-04-16T18:05:09.212Z,10.88
2023-04-16T18:07:37.661Z,9.60
2023-04-16T18:10:06.111Z,10.82
2023-04-16T18:12:34.050Z,9.18
2023-04-16T18:15:01.712Z,11.52
2023-04-16T18:17:30.781Z,10.90
2023-04-16T18:19:58.629Z,11.77
2023-04-16T18:22:28.268Z,11.52
2023-04-16T18:24:56.206Z,11.18
2023-04-16T18:27:24.498Z,12.43
2023-04-16T18:29:54.714Z,11.45
2023-04-16T18:32:23.042Z,11.25
2023-04-16T18:34:52.433Z,12.13
2023-04-16T18:37:20.064Z,12.57
2023-04-16T18:39:49.651Z,12.80
2023-04-16T18:42:17.288Z,10.40
2023-04-16T18:44:44.907Z,9.95
2023-04-16T18:47:12.607Z,10.68
2023-04-16T18:49:40.293Z,9.73
2023-04-16T18:52:09.644Z,8.95
2023-04-16T18:54:37.450Z,10.20
2023-04-16T18:57:05.388Z,9.38
2023-04-16T18:59:33.103Z,9.73
2023-04-16T19:02:00.943Z,8.48
2023-04-16T19:04:28.766Z,8.40
2023-04-16T19:06:56.679Z,8.82
2023-04-16T19:09:26.443Z,10.43
2023-04-16T19:11:54.088Z,9.75
2023-04-16T19:14:21.880Z,8.18
2023-04-16T19:16:49.573Z,9.98
2023-04-16T19:19:17.818Z,9.45
2023-04-16T19:21:45.765Z,10.13
2023-04-16T19:24:13.509Z,8.73
2023-04-16T19:26:42.538Z,8.73
2023-04-16T19:29:10.395Z,9.05
2023-04-16T19:31:39.428Z,8.93
2023-04-16T19:34:07.431Z,9.32
2023-04-16T19:36:35.124Z,9.68
2023-04-16T19:39:03.789Z,9.68
2023-04-16T19:41:31.498Z,10.25
2023-04-16T19:44:00.597Z,9.85
2023-04-16T19:46:28.304Z,10.73
2023-04-16T19:48:56.751Z,10.95
2023-04-16T19:51:24.426Z,11.68
2023-04-16T19:53:54.354Z,11.32
2023-04-16T19:56:22.147Z,14.20
2023-04-16T19:58:50.311Z,12.93
2023-04-16T20:01:19.485Z,12.43
2023-04-16T20:03:47.165Z,12.13
2023-04-16T20:06:14.856Z,11.45
2023-04-16T20:08:42.632Z,10.60
2023-04-16T20:11:12.506Z,10.23
2023-04-16T20:13:40.114Z,9.05
2023-04-16T20:16:09.223Z,9.18
2023-04-16T20:21:41.501Z,9.70
2023-04-16T20:24:10.646Z,10.18
2023-04-16T20:26:38.715Z,9.77
2023-04-16T20:29:06.599Z,8.75
2023-04-16T20:31:34.239Z,7.03
2023-04-16T20:34:02.131Z,6.15
2023-04-16T20:36:29.937Z,5.93
2023-04-16T20:39:02.233Z,6.40
2023-04-16T20:41:30.294Z,6.13
2023-04-16T20:43:57.939Z,5.97
2023-04-16T20:46:25.892Z,7.07
2023-04-16T20:48:53.660Z,6.78
2023-04-16T20:51:21.546Z,6.88
2023-04-16T20:53:50.207Z,6.82
2023-04-16T20:56:19.247Z,6.40
2023-04-16T20:58:46.897Z,7.22
2023-04-16T21:01:14.767Z,6.78
2023-04-16T21:03:42.648Z,7.63
2023-04-16T21:06:14.430Z,6.53
2023-04-16T21:08:42.053Z,6.43
2023-04-16T21:11:09.804Z,6.10
2023-04-16T21:13:39.005Z,5.50
2023-04-16T21:16:08.344Z,6.30
2023-04-16T21:18:36.733Z,6.57
2023-04-16T21:21:04.590Z,5.88
2023-04-16T21:23:32.537Z,6.47
2023-04-16T21:26:00.316Z,5.80
2023-04-16T21:28:27.936Z,6.72
2023-04-16T21:30:56.981Z,5.70
2023-04-16T21:33:24.658Z,6.60
2023-04-16T21:35:52.833Z,6.30
2023-04-16T21:38:20.481Z,6.25
2023-04-16T21:40:50.640Z,6.97
2023-04-16T21:43:18.320Z,7.25
2023-04-16T21:45:46.001Z,5.88
2023-04-16T21:48:15.026Z,6.45
2023-04-16T21:50:42.696Z,6.05
2023-04-16T21:53:10.319Z,6.75
2023-04-16T21:55:40.634Z,6.55
2023-04-16T21:58:08.284Z,5.88
2023-04-16T22:00:36.010Z,6.95
2023-04-16T22:03:04.585Z,7.70
2023-04-16T22:05:33.822Z,7.43
2023-04-16T22:08:07.966Z,6.72
2023-04-16T22:10:45.223Z,6.95
2023-04-16T22:13:13.853Z,7.70
2023-04-16T22:15:41.469Z,7.95
2023-04-16T22:18:09.679Z,6.50
2023-04-16T22:20:39.839Z,6.60
2023-04-16T22:23:07.686Z,6.72
2023-04-16T22:25:35.316Z,7.10
2023-04-16T22:28:03.020Z,7.57
2023-04-16T22:30:30.730Z,7.43
2023-04-16T22:33:00.927Z,8.18
2023-04-16T22:35:28.760Z,6.88
2023-04-16T22:37:57.773Z,6.93
2023-04-16T22:40:25.514Z,7.47
2023-04-16T22:42:53.334Z,6.18
2023-04-16T22:45:21.024Z,6.10
2023-04-16T22:47:48.760Z,6.50
2023-04-16T22:50:16.774Z,7.20
2023-04-16T22:52:44.407Z,7.95
2023-04-16T22:55:13.434Z,7.18
2023-04-16T22:57:41.262Z,8.60
2023-04-16T23:00:15.816Z,7.43
2023-04-16T23:02:43.708Z,8.07
2023-04-16T23:05:12.127Z,7.55
2023-04-16T23:07:39.945Z,8.40
2023-04-16T23:10:09.331Z,8.75
2023-04-16T23:12:38.725Z,8.57
2023-04-16T23:15:07.501Z,7.75
2023-04-16T23:17:35.365Z,8.52
2023-04-16T23:20:05.288Z,9.07
2023-04-16T23:22:33.255Z,8.15
2023-04-16T23:25:00.896Z,7.93
2023-04-16T23:27:28.571Z,8.05
2023-04-16T23:29:57.666Z,8.02
2023-04-16T23:32:25.343Z,6.95
2023-04-16T23:34:53.121Z,6.50
2023-04-16T23:37:22.276Z,7.10
2023-04-16T23:39:49.991Z,6.50
2023-04-16T23:42:17.659Z,6.22
2023-04-16T23:44:45.624Z,7.18
2023-04-16T23:47:14.786Z,8.05
2023-04-16T23:49:42.393Z,7.43
2023-04-16T23:52:10.034Z,7.45
2023-04-16T23:54:37.932Z,7.93
2023-04-16T23:57:05.630Z,6.88
2023-04-16T23:59:34.482Z,7.38
